Wednesday, November 26, 2014
08:55 UTC
  |  Log In   |  Register Free
Airport Search:

Greater Portsmouth Regional Airport
(KPMH)

Greater Portsmouth Regional Airport Diagram
No Airport Diagram Available

FAA data valid effective November 13, 2014 - January 08, 2015 (unless otherwise noted).

 
 
 
 
 
 
 
 
 
 
 
 
 
 

Current Aviation Weather for Greater Portsmouth Regional Airport (KPMH)

METAR data is unavailable for PMH. The nearest METAR location is at KDWU (17.9 nm SE from PMH).

The most recent METAR observation for KDWU was updated at: 0813
METAR Summary (Translated METAR)
KDWU
260755Z AUTO 34003KT 10SM CLR 02/M03 A3007 RMK AO1
(17.9 nm SE from KPMH)
KHTS
260751Z 02006KT 10SM CLR 02/M02 A3007 RMK AO2 SLP183 T00221022
(31.5 nm SE from KPMH)
TAF Summary (Translated TAF)
KHTS
260534Z 2606/2706 03005KT P6SM BKN140 FM261700 00000KT P6SM BKN025 FM262000 00000KT P6SM BKN035
  Airport Weather Conditions for KPMH

Current weather conditions are
not available for PMH


The nearest NOAA weather station
is at DWU, (17.9 nm SE from PMH)
  
 Current Weather at DWU
36° F
Fair
North winds at 3.5 mph
DWU NOAA Radar

Pressure: 30.07 in
Humidity: 70%
Wind: North at 3.5 MPH (3 KT)
Dew Point: 26.6°F
Visibility: 10.00 mi


Airport Weather Forecast for KPMH

Translated METAR and TAF for KHTS
Translated METAR for KHTS (0850 UTC 26 November 2014)
found at http://aviationweather.gov/adds/metars/
 
METAR text: KHTS 260751Z 02006KT 10SM CLR 02/M02 A3007 RMK AO2 SLP183 T00221022
Conditions at: KHTS (HUNTINGTON , WV, US) observed 0751 UTC 26 November 2014
Temperature: 2.2°C (36°F)
Dewpoint: -2.2°C (28°F) [RH = 73%]
Pressure (altimeter): 30.07 inches Hg (1018.4 mb)
[Sea-level pressure: 1018.3 mb]
Winds: from the NNE (20 degrees) at 7 MPH (6 knots; 3.1 m/s)
Visibility: 10 or more miles (16+ km)
Ceiling: at least 12,000 feet AGL
Clouds: sky clear below 12,000 feet AGL
Weather: no significant weather observed at this time
Translated TAF for KHTS
Forecast for: KHTS (HUNTINGTON , WV, US)
TAF Text: KHTS 260534Z 2606/2706 03005KT P6SM BKN140
Forecast period: 0600 to 1700 UTC 26 November 2014
Forecast type: FROM: standard forecast or significant change
Winds: from the NNE (30 degrees) at 6 MPH (5 knots; 2.6 m/s)
Visibility: 6 or more miles (10+ km)
Ceiling: 14000 feet AGL
Clouds: broken clouds at 14000 feet AGL
Weather: no significant weather forecast for this period
TAF Text: FM261700 00000KT P6SM BKN025
Forecast period: 1700 to 2000 UTC 26 November 2014
Forecast type: FROM: standard forecast or significant change
Winds: calm
Visibility: 6 or more miles (10+ km)
Ceiling: 2500 feet AGL
Clouds: broken clouds at 2500 feet AGL
Weather: no significant weather forecast for this period
TAF Text: FM262000 00000KT P6SM BKN035
Forecast period: 2000 UTC 26 November 2014 to 0600 UTC 27 November 2014
Forecast type: FROM: standard forecast or significant change
Winds: calm
Visibility: 6 or more miles (10+ km)
Ceiling: 3500 feet AGL
Clouds: broken clouds at 3500 feet AGL
Weather: no significant weather forecast for this period

Find All Airport Services Find A Hotel Find A Rental Car Find A Golf Course Find A Restaurant $100 Hamburger



FBO's on the Field
FBO Company Facility Photos Services Transportation Aviation Fuel Prices: Prices include tax
Catering Weather Repair Courtesy Rental Type 100LL JetA JetA+ MOGAS 8087
 
Chasteen Aviation, Inc.

This FBO has not yet been rated
FS:Phillips 66
Last Updated: Nov-24
Login to update fuel prices
SS:
Contact Chasteen Aviation, Inc.More FBO Information
 
Add another FBO Facility Photos Catering Weather Repair Courtesy Rental Type 100LL JetA JetA+ MOGAS 8087
Services Transportation Aviation Fuel Prices: Prices include tax


model-print
model-print
model-print
model-print